createdAt,value
2023-04-02T00:01:01.964Z,99520.48
2023-04-02T00:03:42.605Z,99520.85
2023-04-02T00:06:40.258Z,99525.22
2023-04-02T00:09:15.325Z,99532.47
2023-04-02T00:11:50.923Z,99536.59
2023-04-02T00:14:30.942Z,99539.38
2023-04-02T00:17:04.175Z,99541.44
2023-04-02T00:19:58.442Z,99540.20
2023-04-02T00:22:32.580Z,99539.83
2023-04-02T00:25:12.851Z,99538.71
2023-04-02T00:27:41.695Z,99533.08
2023-04-02T00:30:13.620Z,99527.58
2023-04-02T00:32:43.025Z,99524.57
2023-04-02T00:35:27.827Z,99523.58
2023-04-02T00:37:57.811Z,99525.63
2023-04-02T00:40:30.801Z,99519.64
2023-04-02T00:43:04.495Z,99507.02
2023-04-02T00:45:37.588Z,99509.94
2023-04-02T00:48:31.979Z,99508.02
2023-04-02T00:51:14.655Z,99505.05
2023-04-02T00:53:47.663Z,99503.67
2023-04-02T00:56:39.530Z,99506.05
2023-04-02T00:59:58.978Z,99503.99
2023-04-02T01:02:38.595Z,99505.89
2023-04-02T01:05:15.499Z,99510.29
2023-04-02T01:07:56.027Z,99511.00
2023-04-02T01:10:33.800Z,99519.66
2023-04-02T01:13:23.708Z,99525.05
2023-04-02T01:16:46.897Z,99528.10
2023-04-02T01:19:27.221Z,99532.80
2023-04-02T01:22:31.063Z,99530.64
2023-04-02T01:25:00.111Z,99533.41
2023-04-02T01:28:15.029Z,99529.67
2023-04-02T01:30:49.253Z,99528.02
2023-04-02T01:33:20.876Z,99528.39
2023-04-02T01:36:07.216Z,99530.70
2023-04-02T01:39:02.489Z,99532.70
2023-04-02T01:41:47.320Z,99537.05
2023-04-02T01:44:28.068Z,99543.64
2023-04-02T01:46:59.062Z,99543.42
2023-04-02T01:49:28.058Z,99544.16
2023-04-02T01:51:57.351Z,99547.48
2023-04-02T01:54:29.106Z,99551.44
2023-04-02T01:56:58.318Z,99554.68
2023-04-02T01:59:29.624Z,99552.27
2023-04-02T02:02:11.926Z,99552.36
2023-04-02T02:04:41.873Z,99551.58
2023-04-02T02:07:20.844Z,99550.40
2023-04-02T02:09:53.338Z,99551.92
2023-04-02T02:12:23.217Z,99551.50
2023-04-02T02:14:52.725Z,99552.23
2023-04-02T02:17:34.748Z,99554.60
2023-04-02T02:20:09.453Z,99555.30
2023-04-02T02:22:43.762Z,99555.48
2023-04-02T02:25:24.578Z,99556.97
2023-04-02T02:28:10.360Z,99556.98
2023-04-02T02:30:47.924Z,99560.15
2023-04-02T02:33:27.224Z,99565.27
2023-04-02T02:36:00.954Z,99568.35
2023-04-02T02:38:35.425Z,99573.21
2023-04-02T02:41:41.816Z,99574.05
2023-04-02T02:44:10.701Z,99573.42
2023-04-02T02:46:52.697Z,99576.30
2023-04-02T02:49:29.008Z,99576.34
2023-04-02T02:52:26.952Z,99578.29
2023-04-02T02:55:06.728Z,99578.79
2023-04-02T02:58:03.186Z,99578.90
2023-04-02T03:00:36.773Z,99577.89
2023-04-02T03:03:14.615Z,99581.05
2023-04-02T03:05:44.423Z,99583.20
2023-04-02T03:08:41.726Z,99585.17
2023-04-02T03:11:25.133Z,99586.15
2023-04-02T03:14:03.825Z,99588.50
2023-04-02T03:16:44.272Z,99588.46
2023-04-02T03:20:02.465Z,99590.27
2023-04-02T03:22:39.716Z,99590.39
2023-04-02T03:26:00.987Z,99591.11
2023-04-02T03:28:35.779Z,99594.14
2023-04-02T03:31:25.634Z,99591.52
2023-04-02T03:34:00.699Z,99592.79
2023-04-02T03:37:05.787Z,99590.42
2023-04-02T03:39:42.885Z,99589.54
2023-04-02T03:42:30.373Z,99590.66
2023-04-02T03:45:08.190Z,99590.71
2023-04-02T03:47:56.213Z,99594.95
2023-04-02T03:50:36.331Z,99592.09
2023-04-02T03:53:05.996Z,99595.10
2023-04-02T03:55:39.072Z,99600.86
2023-04-02T03:58:19.492Z,99597.69
2023-04-02T04:01:17.755Z,99601.42
2023-04-02T04:03:57.960Z,99604.52
2023-04-02T04:06:33.766Z,99607.30
2023-04-02T04:09:11.301Z,99608.05
2023-04-02T04:11:48.400Z,99611.92
2023-04-02T04:14:22.096Z,99615.78
2023-04-02T04:17:15.626Z,99617.99
2023-04-02T04:20:30.002Z,99621.39
2023-04-02T04:23:20.143Z,99623.10
2023-04-02T04:25:58.952Z,99624.23
2023-04-02T04:29:13.286Z,99625.95
2023-04-02T04:31:55.915Z,99631.21
2023-04-02T04:34:47.028Z,99632.51
2023-04-02T04:37:35.293Z,99635.51
2023-04-02T04:40:23.018Z,99643.41
2023-04-02T04:42:58.611Z,99647.95
2023-04-02T04:45:43.312Z,99654.34
2023-04-02T04:48:30.104Z,99657.15
2023-04-02T04:51:17.650Z,99659.30
2023-04-02T04:53:55.328Z,99661.49
2023-04-02T04:56:30.960Z,99662.38
2023-04-02T04:59:44.842Z,99664.50
2023-04-02T05:02:29.414Z,99666.84
2023-04-02T05:05:01.922Z,99668.83
2023-04-02T05:07:46.133Z,99669.00
2023-04-02T05:10:42.975Z,99667.97
2023-04-02T05:13:33.256Z,99670.49
2023-04-02T05:16:44.224Z,99671.84
2023-04-02T05:19:51.261Z,99671.64
2023-04-02T05:22:44.223Z,99671.63
2023-04-02T05:25:29.671Z,99669.50
2023-04-02T05:28:19.997Z,99672.97
2023-04-02T05:30:56.575Z,99671.12
2023-04-02T05:33:36.882Z,99678.98
2023-04-02T05:36:12.832Z,99682.27
2023-04-02T05:38:51.403Z,99679.89
2023-04-02T05:41:32.643Z,99684.58
2023-04-02T05:44:18.881Z,99685.21
2023-04-02T05:46:57.100Z,99687.38
2023-04-02T05:49:40.182Z,99690.11
2023-04-02T05:52:17.863Z,99689.92
2023-04-02T05:55:02.726Z,99689.95
2023-04-02T05:58:34.592Z,99695.50
2023-04-02T06:01:12.663Z,99698.15
2023-04-02T06:04:00.392Z,99696.90
2023-04-02T06:07:04.066Z,99696.09
2023-04-02T06:09:45.214Z,99702.48
2023-04-02T06:12:48.982Z,99704.20
2023-04-02T06:15:23.906Z,99711.73
2023-04-02T06:18:33.738Z,99715.64
2023-04-02T06:21:24.013Z,99719.14
2023-04-02T06:24:05.958Z,99716.00
2023-04-02T06:26:43.846Z,99719.16
2023-04-02T06:29:24.317Z,99728.14
2023-04-02T06:32:01.556Z,99723.52
2023-04-02T06:34:35.362Z,99721.88
2023-04-02T06:37:34.621Z,99720.44
2023-04-02T06:41:05.859Z,99725.44
2023-04-02T06:44:19.963Z,99724.77
2023-04-02T06:47:56.820Z,99726.87
2023-04-02T06:51:09.524Z,99733.88
2023-04-02T06:53:48.765Z,99736.30
2023-04-02T06:56:37.457Z,99733.19
2023-04-02T06:59:12.905Z,99734.11
2023-04-02T07:02:06.921Z,99744.20
2023-04-02T07:04:36.087Z,99746.22
2023-04-02T07:07:04.958Z,99751.64
2023-04-02T07:09:37.702Z,99752.56
2023-04-02T07:12:15.243Z,99762.01
2023-04-02T07:14:48.130Z,99764.70
2023-04-02T07:17:18.676Z,99767.33
2023-04-02T07:19:51.634Z,99764.84
2023-04-02T07:22:24.110Z,99770.45
2023-04-02T07:24:58.992Z,99770.36
2023-04-02T07:27:28.145Z,99773.86
2023-04-02T07:29:56.917Z,99782.88
2023-04-02T07:32:25.772Z,99786.10
2023-04-02T07:34:54.673Z,99789.86
2023-04-02T07:37:23.410Z,99783.81
2023-04-02T07:39:52.107Z,99789.93
2023-04-02T07:42:20.800Z,99788.95
2023-04-02T07:44:49.353Z,99789.83
2023-04-02T07:47:18.042Z,99796.23
2023-04-02T07:49:47.252Z,99801.33
2023-04-02T07:52:15.881Z,99802.42
2023-04-02T07:54:51.735Z,99804.84
2023-04-02T07:57:28.541Z,99811.67
2023-04-02T08:00:01.526Z,99806.41
2023-04-02T08:02:41.515Z,99807.07
2023-04-02T08:05:11.279Z,99807.45
2023-04-02T08:07:42.552Z,99807.33
2023-04-02T08:10:22.005Z,99806.98
2023-04-02T08:12:54.084Z,99805.84
2023-04-02T08:15:22.931Z,99807.34
2023-04-02T08:18:23.800Z,99807.30
2023-04-02T08:20:53.617Z,99814.03
2023-04-02T08:23:31.567Z,99812.71
2023-04-02T08:26:01.057Z,99813.12
2023-04-02T08:28:29.936Z,99812.84
2023-04-02T08:30:58.760Z,99815.86
2023-04-02T08:33:27.604Z,99817.46
2023-04-02T08:38:47.671Z,99817.10
2023-04-02T08:41:28.094Z,99821.48
2023-04-02T08:44:50.373Z,99818.18
2023-04-02T08:47:26.112Z,99821.68
2023-04-02T08:50:16.633Z,99821.74
2023-04-02T08:52:45.214Z,99824.73
2023-04-02T08:55:49.217Z,99821.54
2023-04-02T09:02:32.841Z,99821.07
2023-04-02T09:05:07.826Z,99821.66
2023-04-02T09:07:36.773Z,99827.40
2023-04-02T09:10:05.906Z,99829.64
2023-04-02T09:12:36.519Z,99830.72
2023-04-02T09:15:22.742Z,99835.59
2023-04-02T09:18:17.126Z,99836.88
2023-04-02T09:20:48.265Z,99842.10
2023-04-02T09:23:26.202Z,99838.72
2023-04-02T09:26:04.296Z,99842.61
2023-04-02T09:28:35.971Z,99845.08
2023-04-02T09:31:43.357Z,99845.96
2023-04-02T09:34:35.111Z,99844.73
2023-04-02T09:37:25.496Z,99846.16
2023-04-02T09:40:29.564Z,99848.80
2023-04-02T09:43:21.790Z,99853.86
2023-04-02T09:46:16.123Z,99853.25
2023-04-02T09:48:56.212Z,99856.42
2023-04-02T09:51:56.064Z,99855.71
2023-04-02T09:54:26.733Z,99858.16
2023-04-02T09:57:06.063Z,99854.85
2023-04-02T09:59:34.612Z,99857.52
2023-04-02T10:02:28.735Z,99857.90
2023-04-02T10:05:41.090Z,99854.79
2023-04-02T10:08:33.020Z,99857.40
2023-04-02T10:11:46.890Z,99856.78
2023-04-02T10:14:17.074Z,99860.05
2023-04-02T10:17:28.079Z,99859.50
2023-04-02T10:20:18.116Z,99867.65
2023-04-02T10:22:48.756Z,99862.69
2023-04-02T10:25:21.671Z,99861.34
2023-04-02T10:28:08.801Z,99859.58
2023-04-02T10:30:55.444Z,99863.31
2023-04-02T10:33:38.736Z,99856.02
2023-04-02T10:36:30.750Z,99858.58
2023-04-02T10:39:12.879Z,99854.23
2023-04-02T10:41:57.749Z,99858.58
2023-04-02T10:48:32.811Z,99860.31
2023-04-02T10:51:07.754Z,99863.70
2023-04-02T10:53:57.561Z,99865.89
2023-04-02T10:56:35.195Z,99863.58
2023-04-02T10:59:24.753Z,99867.19
2023-04-02T11:01:57.422Z,99865.65
2023-04-02T11:04:46.653Z,99872.41
2023-04-02T11:07:23.002Z,99874.59
2023-04-02T11:09:56.734Z,99869.80
2023-04-02T11:13:24.893Z,99871.50
2023-04-02T11:15:54.078Z,99880.13
2023-04-02T11:18:36.132Z,99873.34
2023-04-02T11:21:58.069Z,99873.67
2023-04-02T11:24:38.330Z,99875.75
2023-04-02T11:27:16.731Z,99878.95
2023-04-02T11:30:35.073Z,99885.14
2023-04-02T11:38:06.236Z,99884.88
2023-04-02T11:40:48.818Z,99885.45
2023-04-02T11:43:37.250Z,99881.19
2023-04-02T11:46:35.037Z,99882.11
2023-04-02T11:49:40.934Z,99885.45
2023-04-02T11:52:24.469Z,99886.41
2023-04-02T11:56:09.114Z,99887.10
2023-04-02T11:59:38.199Z,99885.33
2023-04-02T12:03:13.976Z,99892.08
2023-04-02T12:06:26.046Z,99892.17
2023-04-02T12:09:09.765Z,99895.33
2023-04-02T12:11:41.655Z,99888.52
2023-04-02T12:14:38.298Z,99894.86
2023-04-02T12:17:39.259Z,99890.55
2023-04-02T12:20:10.889Z,99893.10
2023-04-02T12:22:49.136Z,99890.72
2023-04-02T12:25:41.018Z,99896.37
2023-04-02T12:28:09.739Z,99893.79
2023-04-02T12:30:39.232Z,99895.00
2023-04-02T12:33:20.154Z,99899.45
2023-04-02T12:35:58.768Z,99899.09
2023-04-02T12:38:31.355Z,99901.02
2023-04-02T12:41:05.462Z,99894.47
2023-04-02T12:43:38.191Z,99906.36
2023-04-02T12:46:59.694Z,99905.23
2023-04-02T12:49:39.205Z,99903.53
2023-04-02T12:52:17.734Z,99903.52
2023-04-02T12:54:58.787Z,99904.20
2023-04-02T12:57:32.607Z,99908.96
2023-04-02T13:00:20.280Z,99910.84
2023-04-02T13:03:01.251Z,99916.19
2023-04-02T13:05:45.850Z,99916.99
2023-04-02T13:08:29.654Z,99916.29
2023-04-02T13:11:01.220Z,99916.77
2023-04-02T13:13:41.225Z,99917.23
2023-04-02T13:16:16.204Z,99914.13
2023-04-02T13:18:50.646Z,99916.38
2023-04-02T13:21:30.031Z,99923.92
2023-04-02T13:23:59.350Z,99923.35
2023-04-02T13:26:32.186Z,99925.29
2023-04-02T13:29:27.097Z,99926.42
2023-04-02T13:32:13.263Z,99929.75
2023-04-02T13:34:45.032Z,99936.32
2023-04-02T13:37:14.138Z,99940.59
2023-04-02T13:39:43.100Z,99938.95
2023-04-02T13:42:15.848Z,99941.43
2023-04-02T13:44:47.478Z,99945.86
2023-04-02T13:47:21.654Z,99948.48
2023-04-02T13:50:21.621Z,99942.92
2023-04-02T13:52:54.041Z,99940.48
2023-04-02T13:55:28.523Z,99938.01
2023-04-02T13:59:07.589Z,99939.58
2023-04-02T14:01:41.464Z,99942.91
2023-04-02T14:04:38.880Z,99942.72
2023-04-02T14:07:55.591Z,99946.05
2023-04-02T14:11:20.107Z,99949.40
2023-04-02T14:13:58.461Z,99949.45
2023-04-02T14:16:41.029Z,99950.50
2023-04-02T14:19:40.940Z,99952.80
2023-04-02T14:22:54.060Z,99946.50
2023-04-02T14:25:37.704Z,99948.50
2023-04-02T14:28:49.467Z,99946.14
2023-04-02T14:31:33.411Z,99949.11
2023-04-02T14:35:00.011Z,99953.40
2023-04-02T14:38:08.180Z,99954.59
2023-04-02T14:40:50.338Z,99954.52
2023-04-02T14:46:44.210Z,99956.62
2023-04-02T14:49:43.451Z,99957.16
2023-04-02T14:52:22.138Z,99957.11
2023-04-02T14:55:07.909Z,99956.16
2023-04-02T14:57:52.080Z,99957.65
2023-04-02T15:00:50.753Z,99957.70
2023-04-02T15:03:29.201Z,99952.31
2023-04-02T15:06:10.916Z,99953.77
2023-04-02T15:12:45.220Z,99959.71
2023-04-02T15:15:40.272Z,99959.08
2023-04-02T15:18:23.527Z,99964.55
2023-04-02T15:21:19.481Z,99969.27
2023-04-02T15:24:20.401Z,99974.27
2023-04-02T15:27:43.668Z,99977.98
2023-04-02T15:31:08.945Z,99984.59
2023-04-02T15:33:46.238Z,99992.64
2023-04-02T15:36:48.142Z,99998.90
2023-04-02T15:39:19.237Z,100004.38
2023-04-02T15:42:18.933Z,100000.73
2023-04-02T15:45:40.528Z,100001.34
2023-04-02T15:49:37.752Z,100000.15
2023-04-02T15:52:57.447Z,100000.25
2023-04-02T15:56:27.185Z,100006.67
2023-04-02T15:59:20.015Z,100005.91
2023-04-02T16:02:23.601Z,100007.25
2023-04-02T16:05:24.978Z,100011.21
2023-04-02T16:08:36.045Z,100010.86
2023-04-02T16:11:13.852Z,100014.23
2023-04-02T16:13:44.370Z,100014.17
2023-04-02T16:16:36.404Z,100016.55
2023-04-02T16:19:47.110Z,100014.20
2023-04-02T16:22:29.857Z,100017.27
2023-04-02T16:25:11.458Z,100021.20
2023-04-02T16:27:55.739Z,100021.05
2023-04-02T16:30:51.747Z,100020.70
2023-04-02T16:34:02.735Z,100021.36
2023-04-02T16:36:47.060Z,100023.91
2023-04-02T16:40:07.112Z,100028.23
2023-04-02T16:43:17.406Z,100029.11
2023-04-02T16:45:57.501Z,100033.52
2023-04-02T16:48:39.265Z,100029.06
2023-04-02T16:51:41.744Z,100030.92
2023-04-02T16:54:46.524Z,100033.66
2023-04-02T16:57:41.313Z,100038.32
2023-04-02T17:00:40.503Z,100044.66
2023-04-02T17:03:22.156Z,100045.98
2023-04-02T17:06:16.201Z,100046.50
2023-04-02T17:09:02.068Z,100048.11
2023-04-02T17:15:28.275Z,100056.67
2023-04-02T17:18:01.126Z,100061.30
2023-04-02T17:20:39.398Z,100065.90
2023-04-02T17:23:25.550Z,100060.73
2023-04-02T17:26:15.181Z,100058.65
2023-04-02T17:28:59.583Z,100062.62
2023-04-02T17:31:40.947Z,100070.09
2023-04-02T17:34:27.029Z,100071.41
2023-04-02T17:37:54.336Z,100073.13
2023-04-02T17:41:02.569Z,100071.98
2023-04-02T17:44:19.405Z,100075.66
2023-04-02T17:47:21.764Z,100083.11
2023-04-02T17:50:15.384Z,100083.10
2023-04-02T17:53:21.876Z,100090.22
2023-04-02T17:55:56.313Z,100092.56
2023-04-02T17:59:40.084Z,100101.75
2023-04-02T18:03:13.960Z,100104.88
2023-04-02T18:05:52.536Z,100111.52
2023-04-02T18:12:01.680Z,100130.46
2023-04-02T18:14:56.369Z,100133.27
2023-04-02T18:17:50.515Z,100131.08
2023-04-02T18:21:24.889Z,100134.20
2023-04-02T18:24:18.164Z,100137.55
2023-04-02T18:27:04.145Z,100139.88
2023-04-02T18:30:10.261Z,100140.20
2023-04-02T18:33:06.845Z,100145.52
2023-04-02T18:35:56.697Z,100145.98
2023-04-02T18:38:54.146Z,100154.16
2023-04-02T18:42:05.390Z,100154.77
2023-04-02T18:45:10.999Z,100158.80
2023-04-02T18:48:20.137Z,100158.23
2023-04-02T18:50:49.819Z,100156.19
2023-04-02T18:53:24.799Z,100159.50
2023-04-02T18:56:25.286Z,100160.29
2023-04-02T18:58:58.841Z,100163.36
2023-04-02T19:04:31.195Z,100170.89
2023-04-02T19:07:18.864Z,100171.75
2023-04-02T19:09:50.684Z,100177.38
2023-04-02T19:12:23.855Z,100174.92
2023-04-02T19:14:52.769Z,100177.70
2023-04-02T19:17:47.459Z,100176.79
2023-04-02T19:21:05.081Z,100184.11
2023-04-02T19:23:56.843Z,100191.07
2023-04-02T19:26:36.608Z,100191.15
2023-04-02T19:29:41.775Z,100194.79
2023-04-02T19:32:52.906Z,100196.02
2023-04-02T19:35:37.389Z,100196.06
2023-04-02T19:38:40.793Z,100198.33
2023-04-02T19:41:31.942Z,100201.09
2023-04-02T19:44:00.916Z,100203.81
2023-04-02T19:46:30.605Z,100207.41
2023-04-02T19:49:03.780Z,100208.08
2023-04-02T19:51:33.784Z,100210.95
2023-04-02T19:54:04.814Z,100209.36
2023-04-02T19:56:35.289Z,100212.44
2023-04-02T19:59:17.249Z,100216.86
2023-04-02T20:01:47.217Z,100222.98
2023-04-02T20:04:15.959Z,100216.43
2023-04-02T20:06:45.214Z,100214.62
2023-04-02T20:09:13.874Z,100218.17
2023-04-02T20:11:42.507Z,100217.13
2023-04-02T20:14:13.412Z,100220.90
2023-04-02T20:16:43.276Z,100219.50
2023-04-02T20:19:13.279Z,100222.48
2023-04-02T20:21:41.970Z,100225.20
2023-04-02T20:24:10.686Z,100228.84
2023-04-02T20:26:39.259Z,100228.80
2023-04-02T20:29:07.989Z,100232.45
2023-04-02T20:31:36.746Z,100235.75
2023-04-02T20:34:07.062Z,100236.14
2023-04-02T20:36:36.134Z,100235.27
2023-04-02T20:39:08.103Z,100233.27
2023-04-02T20:41:36.707Z,100234.52
2023-04-02T20:44:05.509Z,100242.41
2023-04-02T20:46:34.403Z,100247.31
2023-04-02T20:49:03.589Z,100244.59
2023-04-02T20:53:52.463Z,100249.48
2023-04-02T20:56:23.517Z,100247.29
2023-04-02T20:58:52.690Z,100244.91
2023-04-02T21:01:21.365Z,100248.59
2023-04-02T21:03:54.981Z,100244.45
2023-04-02T21:06:26.322Z,100242.91
2023-04-02T21:08:55.063Z,100246.34
2023-04-02T21:11:26.388Z,100244.99
2023-04-02T21:13:54.935Z,100249.74
2023-04-02T21:16:29.788Z,100250.66
2023-04-02T21:19:06.280Z,100255.64
2023-04-02T21:21:38.134Z,100257.29
2023-04-02T21:24:09.626Z,100261.42
2023-04-02T21:26:41.646Z,100264.33
2023-04-02T21:29:12.520Z,100266.88
2023-04-02T21:31:42.190Z,100264.86
2023-04-02T21:34:16.250Z,100264.17
2023-04-02T21:36:48.125Z,100265.75
2023-04-02T21:39:23.400Z,100272.99
2023-04-02T21:41:53.426Z,100276.30
2023-04-02T21:44:24.211Z,100275.06
2023-04-02T21:46:54.068Z,100274.40
2023-04-02T21:49:23.715Z,100274.89
2023-04-02T21:51:52.657Z,100270.73
2023-04-02T21:54:21.677Z,100273.30
2023-04-02T21:56:50.558Z,100273.02
2023-04-02T21:59:19.892Z,100281.95
2023-04-02T22:01:51.352Z,100277.19
2023-04-02T22:04:25.761Z,100282.44
2023-04-02T22:06:54.812Z,100282.69
2023-04-02T22:09:26.892Z,100283.44
2023-04-02T22:12:02.552Z,100283.65
2023-04-02T22:14:31.410Z,100293.27
2023-04-02T22:17:00.829Z,100284.39
2023-04-02T22:19:29.687Z,100287.27
2023-04-02T22:21:58.372Z,100292.63
2023-04-02T22:24:27.333Z,100293.93
2023-04-02T22:26:56.193Z,100290.36
2023-04-02T22:29:24.855Z,100298.58
2023-04-02T22:31:53.513Z,100296.36
2023-04-02T22:34:22.281Z,100296.63
2023-04-02T22:36:51.048Z,100301.64
2023-04-02T22:39:19.728Z,100296.52
2023-04-02T22:41:49.012Z,100296.61
2023-04-02T22:44:17.828Z,100305.39
2023-04-02T22:46:46.803Z,100301.14
2023-04-02T22:49:19.500Z,100300.66
2023-04-02T22:51:48.575Z,100295.18
2023-04-02T22:54:17.285Z,100303.20
2023-04-02T22:56:46.143Z,100306.98
2023-04-02T22:59:15.002Z,100306.70
2023-04-02T23:01:43.815Z,100300.84
2023-04-02T23:04:13.019Z,100305.64
2023-04-02T23:06:41.845Z,100307.20
2023-04-02T23:09:11.312Z,100304.23
2023-04-02T23:11:40.019Z,100299.63
2023-04-02T23:14:09.769Z,100303.04
2023-04-02T23:16:38.624Z,100303.83
2023-04-02T23:19:07.489Z,100305.95
2023-04-02T23:21:36.619Z,100307.77
2023-04-02T23:24:05.447Z,100302.10
2023-04-02T23:26:34.207Z,100306.49
2023-04-02T23:29:03.005Z,100305.63
2023-04-02T23:31:32.084Z,100306.13
2023-04-02T23:34:02.714Z,100306.53
2023-04-02T23:36:34.686Z,100305.77
2023-04-02T23:39:11.016Z,100308.53
2023-04-02T23:41:42.829Z,100302.27
2023-04-02T23:44:12.280Z,100309.24
2023-04-02T23:46:41.098Z,100311.89
2023-04-02T23:49:12.819Z,100310.44
2023-04-02T23:51:41.860Z,100307.61
2023-04-02T23:54:14.844Z,100314.86
2023-04-02T23:56:43.661Z,100312.08
2023-04-02T23:59:12.385Z,100322.66
